createdAt,value
2019-02-22T00:00:10.226Z,14.00
2019-02-22T00:02:40.611Z,13.60
2019-02-22T00:05:09.571Z,13.60
2019-02-22T00:07:38.368Z,14.20
2019-02-22T00:10:08.917Z,13.80
2019-02-22T00:12:37.755Z,15.23
2019-02-22T00:15:07.459Z,13.78
2019-02-22T00:17:36.923Z,14.25
2019-02-22T00:20:06.022Z,13.83
2019-02-22T00:22:34.807Z,12.53
2019-02-22T00:25:03.771Z,14.30
2019-02-22T00:27:32.560Z,16.40
2019-02-22T00:30:01.349Z,14.13
2019-02-22T00:32:30.150Z,13.00
2019-02-22T00:34:59.098Z,14.33
2019-02-22T00:37:28.317Z,15.00
2019-02-22T00:39:57.452Z,14.60
2019-02-22T00:42:26.272Z,16.57
2019-02-22T00:44:55.166Z,13.77
2019-02-22T00:47:24.028Z,14.60
2019-02-22T00:49:52.816Z,14.83
2019-02-22T00:52:21.810Z,13.00
2019-02-22T00:54:50.764Z,14.77
2019-02-22T00:57:19.589Z,14.00
2019-02-22T00:59:48.466Z,15.95
2019-02-22T01:02:17.255Z,13.00
2019-02-22T01:04:46.372Z,15.83
2019-02-22T01:07:15.249Z,14.50
2019-02-22T01:09:44.114Z,15.17
2019-02-22T01:12:12.924Z,15.20
2019-02-22T01:14:41.716Z,14.77
2019-02-22T01:17:10.582Z,15.07
2019-02-22T01:19:39.539Z,16.62
2019-02-22T01:22:08.400Z,14.73
2019-02-22T01:24:37.180Z,16.90
2019-02-22T01:27:06.060Z,15.23
2019-02-22T01:29:36.095Z,15.43
2019-02-22T01:32:04.934Z,14.60
2019-02-22T01:34:33.841Z,17.40
2019-02-22T01:37:02.650Z,18.13
2019-02-22T01:39:31.433Z,15.43
2019-02-22T01:42:00.388Z,17.32
2019-02-22T01:44:29.171Z,17.20
2019-02-22T01:46:57.993Z,15.50
2019-02-22T01:49:26.850Z,15.27
2019-02-22T01:51:55.641Z,17.62
2019-02-22T01:54:24.444Z,13.60
2019-02-22T01:56:53.297Z,15.50
2019-02-22T01:59:22.250Z,18.70
2019-02-22T02:01:51.058Z,17.30
2019-02-22T02:04:19.851Z,17.13
2019-02-22T02:06:48.757Z,17.20
2019-02-22T02:09:20.667Z,17.87
2019-02-22T02:11:49.647Z,17.48
2019-02-22T02:14:18.465Z,15.40
2019-02-22T02:16:47.254Z,15.43
2019-02-22T02:19:16.043Z,15.40
2019-02-22T02:21:44.839Z,14.27
2019-02-22T02:24:13.716Z,15.23
2019-02-22T02:26:42.496Z,14.90
2019-02-22T02:29:12.285Z,15.58
2019-02-22T02:31:41.093Z,15.87
2019-02-22T02:34:09.894Z,14.93
2019-02-22T02:36:38.694Z,17.77
2019-02-22T02:39:08.127Z,15.18
2019-02-22T02:41:36.945Z,16.67
2019-02-22T02:44:05.796Z,14.33
2019-02-22T02:46:34.588Z,16.00
2019-02-22T02:49:03.475Z,15.50
2019-02-22T02:51:32.260Z,14.73
2019-02-22T02:54:01.050Z,17.00
2019-02-22T02:56:29.903Z,15.07
2019-02-22T02:58:58.690Z,14.30
2019-02-22T03:01:27.494Z,16.60
2019-02-22T03:03:56.488Z,14.90
2019-02-22T03:06:32.323Z,14.10
2019-02-22T03:09:01.128Z,14.10
2019-02-22T03:11:29.976Z,13.60
2019-02-22T03:13:58.795Z,16.10
2019-02-22T03:16:27.579Z,14.53
2019-02-22T03:18:56.451Z,16.80
2019-02-22T03:21:25.243Z,16.93
2019-02-22T03:23:54.050Z,15.90
2019-02-22T03:26:22.853Z,17.60
2019-02-22T03:28:51.728Z,16.80
2019-02-22T03:31:20.587Z,15.87
2019-02-22T03:33:49.390Z,18.00
2019-02-22T03:36:18.177Z,20.00
2019-02-22T03:38:46.999Z,16.17
2019-02-22T03:41:15.776Z,22.73
2019-02-22T03:43:45.568Z,23.12
2019-02-22T03:46:14.369Z,21.70
2019-02-22T03:48:43.169Z,21.97
2019-02-22T03:51:11.973Z,19.77
2019-02-22T03:53:50.016Z,20.12
2019-02-22T03:56:19.062Z,21.53
2019-02-22T03:58:48.085Z,20.63
2019-02-22T04:01:16.943Z,24.10
2019-02-22T04:03:46.541Z,21.05
2019-02-22T04:06:15.340Z,20.43
2019-02-22T04:08:44.134Z,19.70
2019-02-22T04:11:12.919Z,18.67
2019-02-22T04:13:41.877Z,20.00
2019-02-22T04:16:10.671Z,20.43
2019-02-22T04:18:39.647Z,19.93
2019-02-22T04:21:08.423Z,22.20
2019-02-22T04:23:37.399Z,18.73
2019-02-22T04:26:06.170Z,20.57
2019-02-22T04:28:35.021Z,20.12
2019-02-22T04:31:03.809Z,20.20
2019-02-22T04:33:32.700Z,19.90
2019-02-22T04:36:01.513Z,19.77
2019-02-22T04:38:30.276Z,19.40
2019-02-22T04:40:59.060Z,21.17
2019-02-22T04:43:27.939Z,17.97
2019-02-22T04:45:56.803Z,19.07
2019-02-22T04:48:25.601Z,19.17
2019-02-22T04:50:54.479Z,18.40
2019-02-22T04:53:23.277Z,18.17
2019-02-22T04:55:52.074Z,20.43
2019-02-22T04:58:20.871Z,21.50
2019-02-22T05:00:49.732Z,17.92
2019-02-22T05:03:18.537Z,22.10
2019-02-22T05:05:47.966Z,21.50
2019-02-22T05:08:16.775Z,22.42
2019-02-22T05:10:45.727Z,21.97
2019-02-22T05:13:14.608Z,23.60
2019-02-22T05:15:43.478Z,24.70
2019-02-22T05:18:12.372Z,23.23
2019-02-22T05:20:41.278Z,24.90
2019-02-22T05:23:10.086Z,26.55
2019-02-22T05:25:38.921Z,25.63
2019-02-22T05:28:07.726Z,25.27
2019-02-22T05:30:36.702Z,24.60
2019-02-22T05:33:05.573Z,25.47
2019-02-22T05:35:34.414Z,27.82
2019-02-22T05:38:03.227Z,27.30
2019-02-22T05:40:32.051Z,30.07
2019-02-22T05:43:00.848Z,28.20
2019-02-22T05:45:29.672Z,28.43
2019-02-22T05:47:58.491Z,26.03
2019-02-22T05:50:27.318Z,29.80
2019-02-22T05:52:56.128Z,31.10
2019-02-22T05:55:24.937Z,28.40
2019-02-22T05:57:53.734Z,30.57
2019-02-22T06:00:22.538Z,30.50
2019-02-22T06:02:51.334Z,24.67
2019-02-22T06:05:20.183Z,27.37
2019-02-22T06:07:49.292Z,30.82
2019-02-22T06:10:18.177Z,24.00
2019-02-22T06:12:47.112Z,31.90
2019-02-22T06:15:15.889Z,24.97
2019-02-22T06:17:44.703Z,27.73
2019-02-22T06:20:13.678Z,32.07
2019-02-22T06:22:42.471Z,29.10
2019-02-22T06:25:11.637Z,31.93
2019-02-22T06:27:40.809Z,31.45
2019-02-22T06:30:09.973Z,28.57
2019-02-22T06:32:39.069Z,29.95
2019-02-22T06:35:09.565Z,26.97
2019-02-22T06:37:38.435Z,33.70
2019-02-22T06:40:07.819Z,30.60
2019-02-22T06:42:45.257Z,29.87
2019-02-22T06:45:07.772Z,30.20
2019-02-22T06:47:36.649Z,34.20
2019-02-22T06:50:05.775Z,31.80
2019-02-22T06:52:34.644Z,29.40
2019-02-22T06:55:03.645Z,32.37
2019-02-22T06:57:32.425Z,28.87
2019-02-22T07:00:01.238Z,31.67
2019-02-22T07:02:30.033Z,34.17
2019-02-22T07:04:58.853Z,31.73
2019-02-22T07:07:27.676Z,32.57
2019-02-22T07:09:56.471Z,33.27
2019-02-22T07:12:31.006Z,43.80
2019-02-22T07:14:59.811Z,36.57
2019-02-22T07:17:28.616Z,37.60
2019-02-22T07:19:57.427Z,34.90
2019-02-22T07:22:26.293Z,40.73
2019-02-22T07:24:55.096Z,35.95
2019-02-22T07:27:23.889Z,32.07
2019-02-22T07:29:52.821Z,38.00
2019-02-22T07:32:21.697Z,39.07
2019-02-22T07:34:51.554Z,39.45
2019-02-22T07:37:20.349Z,38.20
2019-02-22T07:39:49.215Z,27.53
2019-02-22T07:42:18.076Z,36.97
2019-02-22T07:44:47.094Z,32.93
2019-02-22T07:47:15.895Z,38.00
2019-02-22T07:49:44.775Z,32.73
2019-02-22T07:52:13.594Z,36.73
2019-02-22T07:54:42.364Z,32.90
2019-02-22T07:57:11.244Z,80.70
2019-02-22T07:59:40.207Z,43.70
2019-02-22T08:02:09.080Z,35.20
2019-02-22T08:04:37.965Z,36.20
2019-02-22T08:07:07.063Z,33.00
2019-02-22T08:09:36.239Z,34.37
2019-02-22T08:12:05.410Z,35.40
2019-02-22T08:14:34.499Z,34.55
2019-02-22T08:17:03.337Z,32.63
2019-02-22T08:19:34.211Z,32.70
2019-02-22T08:22:03.613Z,33.97
2019-02-22T08:24:32.537Z,33.17
2019-02-22T08:27:01.338Z,29.47
2019-02-22T08:29:30.443Z,30.07
2019-02-22T08:31:59.488Z,31.07
2019-02-22T08:34:28.344Z,28.43
2019-02-22T08:36:57.176Z,28.87
2019-02-22T08:39:26.001Z,27.95
2019-02-22T08:41:54.845Z,27.60
2019-02-22T08:44:23.628Z,27.63
2019-02-22T08:46:53.321Z,31.30
2019-02-22T08:49:22.113Z,30.27
2019-02-22T08:51:50.919Z,25.83
2019-02-22T08:54:19.700Z,29.90
2019-02-22T08:56:48.600Z,30.25
2019-02-22T08:59:17.476Z,30.50
2019-02-22T09:01:46.295Z,31.63
2019-02-22T09:04:15.161Z,30.47
2019-02-22T09:06:44.144Z,26.20
2019-02-22T09:09:12.931Z,29.60
2019-02-22T09:11:41.749Z,28.07
2019-02-22T09:14:10.626Z,26.83
2019-02-22T09:16:39.464Z,24.60
2019-02-22T09:19:08.266Z,27.10
2019-02-22T09:21:37.051Z,24.20
2019-02-22T09:24:05.944Z,24.90
2019-02-22T09:26:34.755Z,27.40
2019-02-22T09:29:03.537Z,26.20
2019-02-22T09:31:32.413Z,24.60
2019-02-22T09:34:01.242Z,26.30
2019-02-22T09:36:30.116Z,26.50
2019-02-22T09:38:58.990Z,27.17
2019-02-22T09:41:27.781Z,25.83
2019-02-22T09:43:56.582Z,22.47
2019-02-22T09:46:25.375Z,24.63
2019-02-22T09:48:55.171Z,22.58
2019-02-22T09:51:23.976Z,25.83
2019-02-22T09:53:52.884Z,26.07
2019-02-22T09:56:21.738Z,26.87
2019-02-22T09:58:50.552Z,22.80
2019-02-22T10:01:19.440Z,21.68
2019-02-22T10:03:48.532Z,19.50
2019-02-22T10:06:18.339Z,16.50
2019-02-22T10:08:47.151Z,16.00
2019-02-22T10:11:15.944Z,19.20
2019-02-22T10:13:44.766Z,17.73
2019-02-22T10:16:13.564Z,15.60
2019-02-22T10:18:42.375Z,13.63
2019-02-22T10:21:11.160Z,11.90
2019-02-22T10:23:39.981Z,12.53
2019-02-22T10:26:08.817Z,9.43
2019-02-22T10:28:37.618Z,9.87
2019-02-22T10:31:06.482Z,11.40
2019-02-22T10:33:36.944Z,10.35
2019-02-22T10:36:05.992Z,9.13
2019-02-22T10:38:35.987Z,8.87
2019-02-22T10:41:05.050Z,11.30
2019-02-22T10:43:33.834Z,9.70
2019-02-22T10:46:02.636Z,7.03
2019-02-22T10:48:31.430Z,8.67
2019-02-22T10:51:00.216Z,9.40
2019-02-22T10:53:29.138Z,8.15
2019-02-22T10:55:57.911Z,8.43
2019-02-22T10:58:27.471Z,8.30
2019-02-22T11:00:56.387Z,10.05
2019-02-22T11:03:25.208Z,11.03
2019-02-22T11:05:54.007Z,6.60
2019-02-22T11:08:22.784Z,6.03
2019-02-22T11:10:51.559Z,5.87
2019-02-22T11:13:21.386Z,4.83
2019-02-22T11:15:50.324Z,4.67
2019-02-22T11:18:19.119Z,4.73
2019-02-22T11:20:48.072Z,5.00
2019-02-22T11:23:16.977Z,5.60
2019-02-22T11:25:45.926Z,5.70
2019-02-22T11:28:14.714Z,6.80
2019-02-22T11:30:43.503Z,5.20
2019-02-22T11:33:12.311Z,5.50
2019-02-22T11:35:41.087Z,5.33
2019-02-22T11:38:09.981Z,6.23
2019-02-22T11:40:38.776Z,5.13
2019-02-22T11:43:07.810Z,5.90
2019-02-22T11:45:37.019Z,6.63
2019-02-22T11:48:09.250Z,5.35
2019-02-22T11:50:36.646Z,6.70
2019-02-22T11:53:05.506Z,5.07
2019-02-22T11:55:34.434Z,4.43
2019-02-22T11:58:03.387Z,3.95
2019-02-22T12:00:33.652Z,3.83
2019-02-22T12:03:15.895Z,3.83
2019-02-22T12:05:33.098Z,3.63
2019-02-22T12:08:03.605Z,3.67
2019-02-22T12:10:32.736Z,4.27
2019-02-22T12:13:01.638Z,4.80
2019-02-22T12:15:31.488Z,4.40
2019-02-22T12:18:00.401Z,3.30
2019-02-22T12:20:30.154Z,3.62
2019-02-22T12:22:58.946Z,4.50
2019-02-22T12:25:27.811Z,4.10
2019-02-22T12:27:56.596Z,3.30
2019-02-22T12:30:25.818Z,2.65
2019-02-22T12:32:54.900Z,3.60
2019-02-22T12:35:23.888Z,2.90
2019-02-22T12:37:52.682Z,2.80
2019-02-22T12:40:21.477Z,2.80
2019-02-22T12:42:50.259Z,3.10
2019-02-22T12:45:19.157Z,2.77
2019-02-22T12:47:47.939Z,2.83
2019-02-22T12:50:16.834Z,2.70
2019-02-22T12:52:45.634Z,2.87
2019-02-22T12:55:14.505Z,1.87
2019-02-22T12:57:43.306Z,2.08
2019-02-22T13:00:13.132Z,2.80
2019-02-22T13:02:41.970Z,2.20
2019-02-22T13:05:12.607Z,2.13
2019-02-22T13:07:41.410Z,2.60
2019-02-22T13:10:10.569Z,2.57
2019-02-22T13:12:39.396Z,2.60
2019-02-22T13:15:14.011Z,2.27
2019-02-22T13:17:40.825Z,3.00
2019-02-22T13:20:09.898Z,3.25
2019-02-22T13:22:38.759Z,3.03
2019-02-22T13:25:07.895Z,3.50
2019-02-22T13:27:36.663Z,4.03
2019-02-22T13:30:06.833Z,2.70
2019-02-22T13:32:35.772Z,3.03
2019-02-22T13:35:05.051Z,3.20
2019-02-22T13:37:33.839Z,4.10
2019-02-22T13:40:03.275Z,3.42
2019-02-22T13:42:32.224Z,3.60
2019-02-22T13:45:01.115Z,3.27
2019-02-22T13:47:30.132Z,3.60
2019-02-22T13:49:58.996Z,2.97
2019-02-22T13:52:27.781Z,3.10
2019-02-22T13:54:56.571Z,3.33
2019-02-22T13:57:25.412Z,3.83
2019-02-22T13:59:54.215Z,3.17
2019-02-22T14:02:23.110Z,3.00
2019-02-22T14:04:51.973Z,3.03
2019-02-22T14:07:20.878Z,2.83
2019-02-22T14:09:49.656Z,3.70
2019-02-22T14:12:18.467Z,4.00
2019-02-22T14:14:47.251Z,3.30
2019-02-22T14:17:16.040Z,2.60
2019-02-22T14:19:44.825Z,3.77
2019-02-22T14:22:13.743Z,5.07
2019-02-22T14:24:42.512Z,3.83
2019-02-22T14:27:11.332Z,3.80
2019-02-22T14:29:40.149Z,4.17
2019-02-22T14:32:08.952Z,2.50
2019-02-22T14:34:37.825Z,4.10
2019-02-22T14:37:06.766Z,3.87
2019-02-22T14:39:35.640Z,3.07
2019-02-22T14:42:04.509Z,3.77
2019-02-22T14:44:33.286Z,2.87
2019-02-22T14:47:02.074Z,3.90
2019-02-22T14:49:30.875Z,2.35
2019-02-22T14:51:59.667Z,3.20
2019-02-22T14:54:28.519Z,3.00
2019-02-22T14:56:57.309Z,3.20
2019-02-22T14:59:26.212Z,3.10
2019-02-22T15:01:55.090Z,2.83
2019-02-22T15:04:23.881Z,1.93
2019-02-22T15:06:52.679Z,2.70
2019-02-22T15:09:21.474Z,2.23
2019-02-22T15:11:50.265Z,2.43
2019-02-22T15:14:19.056Z,2.65
2019-02-22T15:17:09.694Z,2.20
2019-02-22T15:19:38.486Z,2.53
2019-02-22T15:22:07.500Z,2.40
2019-02-22T15:24:36.284Z,2.10
2019-02-22T15:27:05.223Z,2.00
2019-02-22T15:29:37.076Z,1.93
2019-02-22T15:32:06.007Z,2.30
2019-02-22T15:34:34.800Z,2.10
2019-02-22T15:37:03.590Z,2.90
2019-02-22T15:39:32.372Z,2.30
2019-02-22T15:42:01.161Z,2.07
2019-02-22T15:44:30.005Z,2.20
2019-02-22T15:46:58.794Z,1.90
2019-02-22T15:49:28.033Z,2.37
2019-02-22T15:51:57.077Z,2.00
2019-02-22T15:54:26.233Z,2.12
2019-02-22T15:56:55.282Z,2.13
2019-02-22T15:59:24.345Z,2.07
2019-02-22T16:01:55.770Z,1.80
2019-02-22T16:04:49.077Z,2.13
2019-02-22T16:07:18.069Z,1.80
2019-02-22T16:09:46.914Z,2.10
2019-02-22T16:12:15.808Z,2.45
2019-02-22T16:14:44.573Z,2.10
2019-02-22T16:17:13.370Z,2.23
2019-02-22T16:19:42.154Z,2.50
2019-02-22T16:22:10.962Z,2.60
2019-02-22T16:24:40.514Z,1.70
2019-02-22T16:27:09.382Z,2.30
2019-02-22T16:29:38.174Z,2.07
2019-02-22T16:32:07.106Z,2.50
2019-02-22T16:34:43.560Z,2.40
2019-02-22T16:37:06.491Z,1.80
2019-02-22T16:39:35.373Z,2.70
2019-02-22T16:42:04.302Z,2.40
2019-02-22T16:44:33.363Z,2.25
2019-02-22T16:47:02.214Z,1.90
2019-02-22T16:49:31.078Z,2.20
2019-02-22T16:51:59.862Z,2.37
2019-02-22T16:54:28.651Z,2.30
2019-02-22T16:56:57.438Z,2.27
2019-02-22T16:59:26.443Z,2.00
2019-02-22T17:01:55.267Z,2.20
2019-02-22T17:04:24.153Z,2.20
2019-02-22T17:06:53.018Z,2.45
2019-02-22T17:09:21.805Z,2.63
2019-02-22T17:11:50.953Z,2.70
2019-02-22T17:14:20.104Z,2.53
2019-02-22T17:16:49.330Z,2.00
2019-02-22T17:19:18.317Z,2.50
2019-02-22T17:21:47.102Z,2.30
2019-02-22T17:24:15.962Z,2.20
2019-02-22T17:26:44.733Z,2.70
2019-02-22T17:29:13.524Z,3.47
2019-02-22T17:31:43.330Z,2.62
2019-02-22T17:34:12.201Z,2.17
2019-02-22T17:36:41.089Z,2.00
2019-02-22T17:39:10.026Z,2.40
2019-02-22T17:41:38.894Z,2.93
2019-02-22T17:44:07.761Z,3.03
2019-02-22T17:46:36.552Z,2.30
2019-02-22T17:49:05.337Z,3.27
2019-02-22T17:51:34.190Z,2.60
2019-02-22T17:54:02.989Z,3.30
2019-02-22T17:56:31.754Z,2.93
2019-02-22T17:59:00.537Z,3.20
2019-02-22T18:01:29.309Z,3.50
2019-02-22T18:03:58.096Z,2.80
2019-02-22T18:06:26.901Z,2.30
2019-02-22T18:08:55.687Z,3.10
2019-02-22T18:11:24.477Z,3.03
2019-02-22T18:13:53.267Z,3.47
2019-02-22T18:16:22.047Z,3.40
2019-02-22T18:18:50.922Z,4.33
2019-02-22T18:21:19.772Z,4.10
2019-02-22T18:23:48.631Z,4.87
2019-02-22T18:26:17.406Z,4.97
2019-02-22T18:28:46.191Z,4.50
2019-02-22T18:31:15.726Z,4.40
2019-02-22T18:33:44.633Z,4.00
2019-02-22T18:36:13.446Z,4.70
2019-02-22T18:38:42.233Z,3.90
2019-02-22T18:41:11.080Z,4.87
2019-02-22T18:43:39.942Z,4.17
2019-02-22T18:46:08.814Z,3.53
2019-02-22T18:48:37.617Z,4.80
2019-02-22T18:51:06.498Z,3.43
2019-02-22T18:53:35.282Z,4.17
2019-02-22T18:56:04.128Z,3.53
2019-02-22T18:58:33.040Z,3.70
2019-02-22T19:01:02.135Z,4.03
2019-02-22T19:03:31.280Z,3.20
2019-02-22T19:06:00.138Z,4.23
2019-02-22T19:08:32.401Z,4.17
2019-02-22T19:10:59.496Z,3.60
2019-02-22T19:13:28.301Z,4.17
2019-02-22T19:15:57.083Z,3.60
2019-02-22T19:18:25.869Z,3.80
2019-02-22T19:20:54.645Z,2.80
2019-02-22T19:23:23.601Z,3.40
2019-02-22T19:25:52.399Z,3.53
2019-02-22T19:28:21.349Z,4.58
2019-02-22T19:30:50.239Z,2.90
2019-02-22T19:33:19.036Z,4.83
2019-02-22T19:35:47.847Z,4.63
2019-02-22T19:38:17.602Z,3.98
2019-02-22T19:40:46.390Z,3.50
2019-02-22T19:43:15.245Z,4.77
2019-02-22T19:45:44.093Z,3.93
2019-02-22T19:48:12.869Z,3.63
2019-02-22T19:50:41.913Z,4.33
2019-02-22T19:53:10.727Z,3.08
2019-02-22T19:55:39.559Z,3.07
2019-02-22T19:58:08.332Z,5.50
2019-02-22T20:00:37.192Z,3.20
2019-02-22T20:03:06.108Z,4.22
2019-02-22T20:05:35.130Z,3.23
2019-02-22T20:08:04.241Z,3.27
2019-02-22T20:10:33.393Z,6.77
2019-02-22T20:13:02.520Z,8.25
2019-02-22T20:15:31.544Z,8.10
2019-02-22T20:18:01.355Z,5.80
2019-02-22T20:20:30.454Z,5.60
2019-02-22T20:22:59.249Z,3.90
2019-02-22T20:25:28.186Z,4.63
2019-02-22T20:27:57.021Z,4.13
2019-02-22T20:30:25.802Z,3.83
2019-02-22T20:32:54.602Z,3.40
2019-02-22T20:35:23.624Z,5.97
2019-02-22T20:37:53.402Z,7.90
2019-02-22T20:40:22.580Z,8.50
2019-02-22T20:42:51.375Z,7.53
2019-02-22T20:45:20.338Z,8.73
2019-02-22T20:47:49.272Z,7.00
2019-02-22T20:50:18.218Z,7.67
2019-02-22T20:52:47.170Z,8.97
2019-02-22T20:55:16.085Z,9.43
2019-02-22T20:57:44.860Z,10.60
2019-02-22T21:00:16.287Z,10.87
2019-02-22T21:02:45.096Z,12.50
2019-02-22T21:05:13.968Z,8.77
2019-02-22T21:07:42.746Z,9.30
2019-02-22T21:10:13.669Z,7.47
2019-02-22T21:12:42.463Z,7.78
2019-02-22T21:15:12.097Z,11.07
2019-02-22T21:17:40.979Z,10.00
2019-02-22T21:20:10.744Z,10.03
2019-02-22T21:22:39.608Z,10.07
2019-02-22T21:25:09.243Z,9.83
2019-02-22T21:27:38.093Z,10.10
2019-02-22T21:30:07.665Z,7.50
2019-02-22T21:32:36.443Z,4.30
2019-02-22T21:35:05.349Z,7.90
2019-02-22T21:37:34.215Z,6.45
2019-02-22T21:40:03.014Z,5.80
2019-02-22T21:42:31.884Z,6.83
2019-02-22T21:45:00.927Z,3.87
2019-02-22T21:47:29.986Z,5.23
2019-02-22T21:49:59.013Z,4.37
2019-02-22T21:52:27.987Z,6.10
2019-02-22T21:54:57.028Z,6.90
2019-02-22T21:57:25.814Z,5.53
2019-02-22T22:02:40.654Z,4.40
2019-02-22T22:05:09.690Z,4.50
2019-02-22T22:07:38.478Z,4.30
2019-02-22T22:10:07.306Z,3.93
2019-02-22T22:12:36.110Z,4.47
2019-02-22T22:15:05.320Z,3.80
2019-02-22T22:17:34.107Z,8.33
2019-02-22T22:20:03.096Z,9.17
2019-02-22T22:22:31.894Z,9.37
2019-02-22T22:25:00.689Z,5.20
2019-02-22T22:27:29.461Z,4.70
2019-02-22T22:29:58.349Z,4.33
2019-02-22T22:32:27.139Z,4.70
2019-02-22T22:34:55.968Z,4.97
2019-02-22T22:37:24.954Z,5.70
2019-02-22T22:39:53.757Z,5.40
2019-02-22T22:42:22.531Z,4.57
2019-02-22T22:44:51.998Z,4.80
2019-02-22T22:47:20.815Z,5.37
2019-02-22T22:49:49.596Z,5.37
2019-02-22T22:52:18.389Z,5.87
2019-02-22T22:54:47.183Z,5.75
2019-02-22T22:57:15.982Z,5.57
2019-02-22T22:59:44.780Z,7.53
2019-02-22T23:02:13.671Z,5.23
2019-02-22T23:04:42.517Z,8.73
2019-02-22T23:07:11.401Z,7.67
2019-02-22T23:09:40.294Z,9.23
2019-02-22T23:12:09.247Z,10.50
2019-02-22T23:14:38.059Z,9.10
2019-02-22T23:17:06.844Z,7.53
2019-02-22T23:19:35.633Z,9.60
2019-02-22T23:22:04.582Z,6.93
2019-02-22T23:24:33.487Z,8.53
2019-02-22T23:27:02.295Z,5.60
2019-02-22T23:29:31.084Z,4.65
2019-02-22T23:31:59.874Z,6.07
2019-02-22T23:34:28.730Z,6.07
2019-02-22T23:36:57.612Z,6.62
2019-02-22T23:39:26.414Z,6.78
2019-02-22T23:41:55.263Z,5.37
2019-02-22T23:44:24.040Z,7.70
2019-02-22T23:46:53.778Z,6.12
2019-02-22T23:49:22.592Z,5.37
2019-02-22T23:51:51.463Z,7.00
2019-02-22T23:54:20.331Z,5.67
2019-02-22T23:56:49.215Z,5.83
2019-02-22T23:59:18.010Z,5.03
